createdAt,value
2019-03-22T00:01:16.783Z,17.15
2019-03-22T00:06:23.891Z,18.35
2019-03-22T00:11:31.043Z,17.03
2019-03-22T00:16:38.422Z,17.26
2019-03-22T00:21:45.531Z,18.20
2019-03-22T00:26:52.656Z,17.60
2019-03-22T00:31:59.772Z,17.13
2019-03-22T00:37:06.857Z,18.46
2019-03-22T00:42:13.992Z,18.73
2019-03-22T00:47:21.103Z,18.21
2019-03-22T00:52:28.251Z,18.34
2019-03-22T00:57:35.351Z,17.76
2019-03-22T01:02:42.480Z,18.73
2019-03-22T01:07:49.581Z,18.31
2019-03-22T01:12:56.714Z,17.71
2019-03-22T01:18:03.835Z,18.05
2019-03-22T01:23:10.944Z,17.63
2019-03-22T01:28:18.350Z,17.69
2019-03-22T01:33:25.468Z,16.84
2019-03-22T01:38:32.648Z,16.84
2019-03-22T01:43:39.759Z,17.64
2019-03-22T01:48:46.866Z,17.22
2019-03-22T01:53:53.990Z,17.76
2019-03-22T01:59:01.094Z,17.57
2019-03-22T02:04:08.206Z,17.52
2019-03-22T02:09:15.301Z,18.90
2019-03-22T02:14:22.745Z,17.71
2019-03-22T02:19:29.888Z,18.75
2019-03-22T02:24:37.013Z,18.86
2019-03-22T02:29:44.499Z,18.52
2019-03-22T02:34:50.799Z,18.30
2019-03-22T02:39:58.040Z,18.38
2019-03-22T02:45:05.133Z,18.11
2019-03-22T02:50:18.584Z,16.90
2019-03-22T02:55:19.110Z,17.31
2019-03-22T03:00:26.828Z,17.72
2019-03-22T03:05:34.041Z,17.04
2019-03-22T03:10:41.196Z,17.16
2019-03-22T03:15:48.308Z,17.20
2019-03-22T03:20:55.451Z,17.96
2019-03-22T03:26:02.568Z,17.97
2019-03-22T03:31:09.765Z,17.74
2019-03-22T03:36:16.916Z,17.07
2019-03-22T03:41:24.038Z,16.51
2019-03-22T03:46:31.178Z,16.21
2019-03-22T03:51:38.300Z,16.27
2019-03-22T03:56:45.415Z,18.05
2019-03-22T04:01:53.183Z,16.50
2019-03-22T04:07:00.307Z,17.75
2019-03-22T04:12:07.417Z,17.44
2019-03-22T04:17:14.539Z,16.03
2019-03-22T04:22:21.962Z,15.65
2019-03-22T04:27:29.088Z,16.17
2019-03-22T04:32:36.185Z,16.97
2019-03-22T04:37:43.298Z,18.00
2019-03-22T04:42:50.482Z,17.88
2019-03-22T04:47:57.619Z,17.47
2019-03-22T04:53:06.138Z,17.68
2019-03-22T04:58:14.455Z,17.67
2019-03-22T05:03:23.046Z,16.85
2019-03-22T05:08:31.479Z,15.58
2019-03-22T05:13:41.296Z,15.36
2019-03-22T05:18:49.823Z,18.55
2019-03-22T05:23:58.507Z,16.76
2019-03-22T05:29:07.235Z,16.18
2019-03-22T05:34:16.990Z,16.26
2019-03-22T05:39:25.635Z,17.21
2019-03-22T05:44:35.006Z,16.49
2019-03-22T05:49:44.013Z,16.10
2019-03-22T05:54:54.198Z,16.41
2019-03-22T05:59:53.262Z,16.53
2019-03-22T06:05:02.394Z,16.52
2019-03-22T06:10:11.392Z,15.07
2019-03-22T06:15:20.533Z,14.81
2019-03-22T06:20:30.703Z,14.48
2019-03-22T06:25:29.894Z,12.43
2019-03-22T06:30:38.779Z,13.33
2019-03-22T06:35:47.786Z,12.28
2019-03-22T06:40:56.554Z,11.91
2019-03-22T06:46:06.012Z,10.22
2019-03-22T06:51:16.098Z,10.20
2019-03-22T06:56:17.907Z,11.02
2019-03-22T07:01:17.912Z,9.68
2019-03-22T07:06:28.117Z,9.72
2019-03-22T07:11:29.083Z,8.76
2019-03-22T07:16:29.451Z,9.63
2019-03-22T07:21:31.135Z,9.68
2019-03-22T07:26:31.262Z,9.67
2019-03-22T07:31:31.508Z,9.78
2019-03-22T07:36:31.756Z,8.96
2019-03-22T07:41:32.000Z,9.64
2019-03-22T07:46:32.009Z,9.51
2019-03-22T07:51:42.218Z,9.98
2019-03-22T07:56:42.219Z,9.19
2019-03-22T08:01:52.426Z,9.81
2019-03-22T08:06:53.392Z,8.99
2019-03-22T08:11:53.401Z,8.80
2019-03-22T08:17:03.486Z,8.64
2019-03-22T08:22:03.613Z,9.23
2019-03-22T08:27:03.290Z,9.15
2019-03-22T08:32:12.985Z,8.33
2019-03-22T08:37:21.928Z,8.17
2019-03-22T08:42:31.357Z,8.07
2019-03-22T08:47:40.043Z,7.66
2019-03-22T08:52:49.370Z,8.18
2019-03-22T08:57:58.739Z,8.46
2019-03-22T09:03:07.865Z,8.28
2019-03-22T09:08:16.554Z,9.34
2019-03-22T09:13:24.727Z,9.54
2019-03-22T09:18:33.456Z,8.41
2019-03-22T09:23:42.692Z,8.67
2019-03-22T09:28:51.982Z,8.38
2019-03-22T09:34:00.943Z,9.31
2019-03-22T09:39:10.431Z,10.80
2019-03-22T09:44:19.590Z,8.36
2019-03-22T09:49:28.794Z,7.53
2019-03-22T09:54:38.210Z,7.88
2019-03-22T09:59:46.937Z,7.82
2019-03-22T10:04:55.609Z,7.88
2019-03-22T10:10:04.134Z,8.18
2019-03-22T10:15:12.674Z,6.93
2019-03-22T10:20:21.197Z,8.03
2019-03-22T10:25:29.814Z,7.76
2019-03-22T10:30:38.547Z,7.99
2019-03-22T10:35:47.266Z,7.74
2019-03-22T10:40:55.900Z,7.52
2019-03-22T10:46:07.865Z,6.51
2019-03-22T10:51:13.667Z,7.09
2019-03-22T10:56:24.823Z,8.04
2019-03-22T11:01:31.904Z,7.21
2019-03-22T11:06:40.596Z,7.21
2019-03-22T11:11:50.051Z,7.36
2019-03-22T11:16:58.586Z,6.84
2019-03-22T11:22:07.804Z,7.10
2019-03-22T11:27:16.479Z,6.72
2019-03-22T11:32:25.248Z,7.15
2019-03-22T11:37:33.651Z,6.40
2019-03-22T11:42:42.174Z,6.76
2019-03-22T11:47:50.435Z,6.10
2019-03-22T11:52:59.079Z,6.72
2019-03-22T11:58:08.471Z,5.57
2019-03-22T12:03:17.960Z,4.99
2019-03-22T12:08:26.858Z,4.99
2019-03-22T12:13:36.695Z,3.77
2019-03-22T12:18:46.068Z,4.41
2019-03-22T12:23:55.306Z,4.25
2019-03-22T12:29:04.316Z,4.88
2019-03-22T12:34:13.557Z,5.54
2019-03-22T12:39:22.447Z,5.48
2019-03-22T12:44:31.692Z,4.67
2019-03-22T12:49:40.823Z,4.52
2019-03-22T12:54:49.947Z,4.47
2019-03-22T12:59:59.284Z,3.71
2019-03-22T13:05:08.650Z,4.58
2019-03-22T13:10:18.857Z,4.36
2019-03-22T13:15:18.769Z,4.37
2019-03-22T13:20:29.910Z,4.14
2019-03-22T13:25:30.159Z,4.67
2019-03-22T13:30:30.166Z,4.03
2019-03-22T13:35:41.211Z,4.16
2019-03-22T13:40:41.576Z,4.21
2019-03-22T13:45:41.583Z,3.63
2019-03-22T13:50:51.550Z,5.11
2019-03-22T13:56:02.358Z,3.29
2019-03-22T14:01:02.602Z,3.21
2019-03-22T14:06:03.332Z,3.59
2019-03-22T14:11:03.696Z,3.50
2019-03-22T14:16:03.821Z,3.72
2019-03-22T14:21:04.079Z,3.75
2019-03-22T14:26:04.075Z,3.01
2019-03-22T14:31:14.307Z,3.12
2019-03-22T14:36:14.414Z,3.38
2019-03-22T14:41:21.375Z,3.04
2019-03-22T14:46:27.507Z,3.49
2019-03-22T14:51:26.308Z,3.07
2019-03-22T14:56:37.477Z,3.35
2019-03-22T15:01:37.001Z,3.79
2019-03-22T15:06:45.576Z,3.05
2019-03-22T15:11:54.053Z,2.90
2019-03-22T15:17:03.594Z,2.32
2019-03-22T15:22:12.353Z,4.59
2019-03-22T15:27:23.593Z,3.85
2019-03-22T15:32:22.920Z,2.68
2019-03-22T15:37:32.789Z,3.27
2019-03-22T15:42:41.532Z,2.47
2019-03-22T15:47:50.416Z,3.53
2019-03-22T15:53:00.021Z,2.61
2019-03-22T15:58:08.993Z,2.18
2019-03-22T16:03:17.685Z,2.45
2019-03-22T16:08:26.409Z,2.24
2019-03-22T16:13:34.987Z,3.09
2019-03-22T16:18:43.851Z,2.36
2019-03-22T16:23:52.611Z,2.26
2019-03-22T16:29:02.103Z,2.32
2019-03-22T16:34:10.977Z,2.29
2019-03-22T16:39:20.833Z,3.00
2019-03-22T16:44:29.706Z,2.19
2019-03-22T16:49:38.698Z,2.80
2019-03-22T16:54:47.852Z,3.58
2019-03-22T16:59:56.514Z,2.66
2019-03-22T17:05:06.256Z,2.57
2019-03-22T17:10:15.723Z,2.54
2019-03-22T17:15:24.212Z,2.63
2019-03-22T17:20:33.009Z,3.19
2019-03-22T17:25:42.588Z,2.21
2019-03-22T17:30:52.675Z,2.94
2019-03-22T17:36:01.252Z,2.56
2019-03-22T17:41:11.102Z,2.88
2019-03-22T17:46:19.961Z,3.26
2019-03-22T17:51:30.234Z,3.12
2019-03-22T17:56:37.130Z,2.82
2019-03-22T18:01:45.924Z,4.36
2019-03-22T18:06:54.996Z,3.43
2019-03-22T18:12:05.350Z,6.00
2019-03-22T18:17:05.234Z,5.15
2019-03-22T18:22:15.206Z,3.45
2019-03-22T18:27:24.450Z,4.52
2019-03-22T18:32:33.580Z,5.01
2019-03-22T18:37:42.824Z,4.39
2019-03-22T18:42:52.193Z,4.27
2019-03-22T18:48:01.528Z,6.02
2019-03-22T18:53:10.903Z,6.99
2019-03-22T18:58:21.131Z,5.34
2019-03-22T19:03:20.537Z,4.31
2019-03-22T19:08:29.543Z,3.46
2019-03-22T19:13:38.523Z,7.38
2019-03-22T19:18:47.557Z,7.07
2019-03-22T19:23:58.216Z,6.40
2019-03-22T19:28:58.583Z,5.66
2019-03-22T19:34:03.267Z,4.97
2019-03-22T19:39:04.354Z,50.83
2019-03-22T19:44:04.479Z,7.17
2019-03-22T19:49:04.606Z,3.53
2019-03-22T19:54:05.452Z,3.34
2019-03-22T19:59:05.459Z,3.18
2019-03-22T20:04:15.444Z,3.37
2019-03-22T20:09:25.398Z,3.21
2019-03-22T20:14:35.959Z,7.32
2019-03-22T20:19:36.833Z,12.39
2019-03-22T20:24:37.052Z,18.45
2019-03-22T20:29:37.417Z,10.84
2019-03-22T20:34:37.907Z,12.41
2019-03-22T20:39:38.030Z,11.18
2019-03-22T20:44:38.277Z,10.48
2019-03-22T20:49:38.886Z,9.11
2019-03-22T20:54:41.200Z,7.00
2019-03-22T21:00:05.832Z,6.77
2019-03-22T21:04:50.190Z,7.61
2019-03-22T21:09:53.446Z,7.47
2019-03-22T21:14:53.125Z,6.44
2019-03-22T21:20:01.897Z,29.71
2019-03-22T21:25:12.288Z,5.60
2019-03-22T21:30:11.019Z,5.26
2019-03-22T21:35:23.022Z,5.96
2019-03-22T21:40:22.908Z,6.40
2019-03-22T21:45:22.166Z,5.40
2019-03-22T21:50:33.084Z,5.06
2019-03-22T21:55:32.127Z,4.73
2019-03-22T22:00:40.294Z,5.16
2019-03-22T22:05:48.582Z,5.00
2019-03-22T22:11:00.027Z,6.29
2019-03-22T22:16:03.743Z,7.59
2019-03-22T22:21:11.786Z,4.87
2019-03-22T22:26:23.255Z,6.73
2019-03-22T22:31:21.132Z,8.18
2019-03-22T22:36:29.546Z,7.43
2019-03-22T22:41:39.291Z,7.76
2019-03-22T22:46:47.552Z,6.80
2019-03-22T22:51:56.317Z,6.50
2019-03-22T22:57:04.244Z,7.05
2019-03-22T23:02:12.317Z,7.00
2019-03-22T23:07:20.339Z,6.33
2019-03-22T23:12:28.557Z,4.95
2019-03-22T23:17:36.963Z,5.33
2019-03-22T23:22:45.557Z,6.20
2019-03-22T23:27:54.501Z,5.51
2019-03-22T23:33:02.880Z,6.16
2019-03-22T23:38:11.619Z,6.33
2019-03-22T23:43:19.788Z,5.63
2019-03-22T23:48:29.689Z,6.06
2019-03-22T23:53:38.160Z,5.50
2019-03-22T23:58:46.562Z,5.70
